createdAt,value
2023-04-10T00:03:24.429Z,7.30
2023-04-10T00:07:25.655Z,6.60
2023-04-10T00:11:06.642Z,5.00
2023-04-10T00:15:14.827Z,5.70
2023-04-10T00:18:55.536Z,5.40
2023-04-10T00:22:43.420Z,6.30
2023-04-10T00:26:51.617Z,5.50
2023-04-10T00:30:50.703Z,5.00
2023-04-10T00:34:48.949Z,4.10
2023-04-10T00:38:46.088Z,4.80
2023-04-10T00:42:10.073Z,4.80
2023-04-10T00:45:58.386Z,5.00
2023-04-10T00:50:06.545Z,5.10
2023-04-10T00:54:17.776Z,5.50
2023-04-10T00:58:25.868Z,3.90
2023-04-10T01:02:34.131Z,4.10
2023-04-10T01:06:40.883Z,4.00
2023-04-10T01:10:51.854Z,4.20
2023-04-10T01:15:00.006Z,3.90
2023-04-10T01:19:17.506Z,2.70
2023-04-10T01:23:43.943Z,2.50
2023-04-10T01:28:10.499Z,2.70
2023-04-10T01:32:27.577Z,3.00
2023-04-10T01:36:36.716Z,3.00
2023-04-10T01:40:38.397Z,2.10
2023-04-10T01:44:39.394Z,3.80
2023-04-10T01:48:47.517Z,5.50
2023-04-10T01:52:48.280Z,3.40
2023-04-10T01:56:46.280Z,4.10
2023-04-10T02:00:54.552Z,3.80
2023-04-10T02:05:06.101Z,7.20
2023-04-10T02:13:12.644Z,5.20
2023-04-10T02:17:13.860Z,5.20
2023-04-10T02:21:22.033Z,3.80
2023-04-10T02:25:30.202Z,4.80
2023-04-10T02:29:38.895Z,5.10
2023-04-10T02:33:47.016Z,4.20
2023-04-10T02:37:58.230Z,4.70
2023-04-10T02:42:08.788Z,3.30
2023-04-10T02:46:10.581Z,4.60
2023-04-10T02:50:19.437Z,4.70
2023-04-10T02:54:27.451Z,5.50
2023-04-10T03:02:27.106Z,6.30
2023-04-10T03:06:27.403Z,4.60
2023-04-10T03:10:35.474Z,5.20
2023-04-10T03:14:36.418Z,6.10
2023-04-10T03:18:44.520Z,6.50
2023-04-10T03:22:03.783Z,6.70
2023-04-10T03:25:22.088Z,4.70
2023-04-10T03:29:22.794Z,5.30
2023-04-10T03:33:30.907Z,6.60
2023-04-10T03:37:39.140Z,6.30
2023-04-10T03:41:47.367Z,7.10
2023-04-10T03:45:55.562Z,5.30
2023-04-10T03:49:45.424Z,6.60
2023-04-10T03:53:46.415Z,6.50
2023-04-10T03:57:54.534Z,7.20
2023-04-10T04:01:08.215Z,6.30
2023-04-10T04:04:24.001Z,7.50
2023-04-10T04:07:56.443Z,5.10
2023-04-10T04:12:19.845Z,7.00
2023-04-10T04:16:09.277Z,7.30
2023-04-10T04:19:28.886Z,8.30
2023-04-10T04:22:55.633Z,8.30
2023-04-10T04:26:09.201Z,6.10
2023-04-10T04:29:37.296Z,7.30
2023-04-10T04:33:33.879Z,7.70
2023-04-10T04:40:09.811Z,8.80
2023-04-10T04:43:27.591Z,8.40
2023-04-10T04:46:32.216Z,6.10
2023-04-10T04:49:51.366Z,7.30
2023-04-10T04:52:50.919Z,8.60
2023-04-10T04:56:15.458Z,8.40
2023-04-10T04:59:53.482Z,10.40
2023-04-10T05:02:44.228Z,12.90
2023-04-10T05:05:52.283Z,8.60
2023-04-10T05:08:32.030Z,8.70
2023-04-10T05:12:03.216Z,8.10
2023-04-10T05:15:06.448Z,8.40
2023-04-10T05:18:30.807Z,8.50
2023-04-10T05:21:39.493Z,8.60
2023-04-10T05:24:29.452Z,9.00
2023-04-10T05:27:38.021Z,6.50
2023-04-10T05:30:40.253Z,7.50
2023-04-10T05:33:34.039Z,7.80
2023-04-10T05:36:34.032Z,9.30
2023-04-10T05:39:23.343Z,8.50
2023-04-10T05:43:14.818Z,9.80
2023-04-10T05:46:37.148Z,7.60
2023-04-10T05:49:55.562Z,7.50
2023-04-10T05:53:00.278Z,7.20
2023-04-10T05:55:56.685Z,9.40
2023-04-10T05:59:06.805Z,9.20
2023-04-10T06:02:36.132Z,8.40
2023-04-10T06:05:07.037Z,9.70
2023-04-10T06:07:58.345Z,6.70
2023-04-10T06:10:30.739Z,6.80
2023-04-10T06:13:01.764Z,7.80
2023-04-10T06:15:32.870Z,9.30
2023-04-10T06:18:09.383Z,9.40
2023-04-10T06:20:40.413Z,9.10
2023-04-10T06:23:24.222Z,11.20
2023-04-10T06:26:19.999Z,10.80
2023-04-10T06:28:50.621Z,7.30
2023-04-10T06:31:21.206Z,9.70
2023-04-10T06:33:52.117Z,9.70
2023-04-10T06:36:20.036Z,10.60
2023-04-10T06:39:31.137Z,11.20
2023-04-10T06:42:07.833Z,15.50
2023-04-10T06:45:05.902Z,15.90
2023-04-10T06:47:42.270Z,16.20
2023-04-10T06:50:13.904Z,10.80
2023-04-10T06:53:00.226Z,10.60
2023-04-10T06:55:40.077Z,12.20
2023-04-10T06:58:43.326Z,13.10
2023-04-10T07:01:13.498Z,14.40
2023-04-10T07:03:48.335Z,13.60
2023-04-10T07:06:29.417Z,15.00
2023-04-10T07:08:58.027Z,15.10
2023-04-10T07:11:25.547Z,10.30
2023-04-10T07:14:01.797Z,11.40
2023-04-10T07:16:53.907Z,11.70
2023-04-10T07:19:24.905Z,11.60
2023-04-10T07:22:04.907Z,12.50
2023-04-10T07:24:46.035Z,13.80
2023-04-10T07:27:23.267Z,12.90
2023-04-10T07:30:16.662Z,12.60
2023-04-10T07:33:29.129Z,9.00
2023-04-10T07:36:13.072Z,9.20
2023-04-10T07:38:42.379Z,10.50
2023-04-10T07:41:18.381Z,9.90
2023-04-10T07:43:54.957Z,10.10
2023-04-10T07:48:59.129Z,9.50
2023-04-10T07:51:27.792Z,10.70
2023-04-10T07:53:57.920Z,9.60
2023-04-10T07:56:31.493Z,7.50
2023-04-10T07:59:05.180Z,8.20
2023-04-10T08:01:41.419Z,9.30
2023-04-10T08:04:09.135Z,10.50
2023-04-10T08:06:42.696Z,9.20
2023-04-10T08:09:09.961Z,10.50
2023-04-10T08:11:50.429Z,9.60
2023-04-10T08:14:24.630Z,9.50
2023-04-10T08:16:54.352Z,9.40
2023-04-10T08:19:24.348Z,10.30
2023-04-10T08:21:51.656Z,9.40
2023-04-10T08:24:31.005Z,6.40
2023-04-10T08:28:18.724Z,6.90
2023-04-10T08:30:58.923Z,8.40
2023-04-10T08:33:35.462Z,8.50
2023-04-10T08:36:02.521Z,9.00
2023-04-10T08:38:31.970Z,8.00
2023-04-10T08:40:59.520Z,8.60
2023-04-10T08:43:27.581Z,10.50
2023-04-10T08:46:10.278Z,8.40
2023-04-10T08:49:01.598Z,7.90
2023-04-10T08:52:03.613Z,7.50
2023-04-10T08:54:43.654Z,6.70
2023-04-10T08:57:54.015Z,6.90
2023-04-10T09:00:31.754Z,7.20
2023-04-10T09:03:15.194Z,7.10
2023-04-10T09:06:18.367Z,6.50
2023-04-10T09:08:45.777Z,7.50
2023-04-10T09:11:15.947Z,7.60
2023-04-10T09:13:44.192Z,7.30
2023-04-10T09:16:31.823Z,4.50
2023-04-10T09:19:03.888Z,4.60
2023-04-10T09:21:34.466Z,5.40
2023-04-10T09:24:01.830Z,6.20
2023-04-10T09:26:30.044Z,5.50
2023-04-10T09:31:44.088Z,5.40
2023-04-10T09:34:18.791Z,5.70
2023-04-10T09:36:54.487Z,5.90
2023-04-10T09:39:54.374Z,6.40
2023-04-10T09:42:33.132Z,7.60
2023-04-10T09:45:01.333Z,7.70
2023-04-10T09:47:30.875Z,6.60
2023-04-10T09:50:00.887Z,4.50
2023-04-10T09:52:33.928Z,5.00
2023-04-10T09:55:14.476Z,5.30
2023-04-10T10:00:15.455Z,5.80
2023-04-10T10:02:44.936Z,7.80
2023-04-10T10:05:17.005Z,6.80
2023-04-10T10:07:49.688Z,7.30
2023-04-10T10:10:16.717Z,6.60
2023-04-10T10:13:00.149Z,7.60
2023-04-10T10:15:45.040Z,5.40
2023-04-10T10:18:26.209Z,5.10
2023-04-10T10:20:56.184Z,6.00
2023-04-10T10:23:29.909Z,5.50
2023-04-10T10:25:57.262Z,5.30
2023-04-10T10:28:25.370Z,5.40
2023-04-10T10:31:04.424Z,5.60
2023-04-10T10:34:05.659Z,5.40
2023-04-10T10:37:20.089Z,4.80
2023-04-10T10:39:56.795Z,5.00
2023-04-10T10:42:51.098Z,4.60
2023-04-10T10:45:47.281Z,9.80
2023-04-10T10:48:14.484Z,7.90
2023-04-10T10:50:57.417Z,7.80
2023-04-10T10:53:39.669Z,8.30
2023-04-10T10:56:23.434Z,9.50
2023-04-10T10:59:02.113Z,8.70
2023-04-10T11:01:39.421Z,5.80
2023-04-10T11:04:48.718Z,5.50
2023-04-10T11:07:16.140Z,5.70
2023-04-10T11:09:57.827Z,6.70
2023-04-10T11:12:26.046Z,6.50
2023-04-10T11:15:00.694Z,3.00
2023-04-10T11:17:48.794Z,2.80
2023-04-10T11:20:17.032Z,3.30
2023-04-10T11:23:10.478Z,3.60
2023-04-10T11:25:53.048Z,3.90
2023-04-10T11:28:38.860Z,4.70
2023-04-10T11:31:22.798Z,4.80
2023-04-10T11:34:10.988Z,5.70
2023-04-10T11:36:41.969Z,3.50
2023-04-10T11:41:43.239Z,3.70
2023-04-10T11:44:12.055Z,3.80
2023-04-10T11:46:43.341Z,6.20
2023-04-10T11:49:10.864Z,4.80
2023-04-10T11:51:52.273Z,5.40
2023-04-10T11:54:24.075Z,6.20
2023-04-10T11:57:17.515Z,7.60
2023-04-10T11:59:49.832Z,10.10
2023-04-10T12:02:16.920Z,5.30
2023-04-10T12:04:44.669Z,4.60
2023-04-10T12:07:19.295Z,3.00
2023-04-10T12:09:49.922Z,4.10
2023-04-10T12:12:21.805Z,4.70
2023-04-10T12:14:53.443Z,10.70
2023-04-10T12:17:21.212Z,6.40
2023-04-10T12:19:53.342Z,6.10
2023-04-10T12:22:26.025Z,4.20
2023-04-10T12:24:54.478Z,4.10
2023-04-10T12:27:43.756Z,3.90
2023-04-10T12:30:57.435Z,2.90
2023-04-10T12:33:58.078Z,4.60
2023-04-10T12:36:35.449Z,4.40
2023-04-10T12:39:22.474Z,4.30
2023-04-10T12:42:17.806Z,5.30
2023-04-10T12:44:54.853Z,5.20
2023-04-10T12:47:26.072Z,4.60
2023-04-10T12:50:27.839Z,4.60
2023-04-10T12:53:04.976Z,3.70
2023-04-10T12:55:34.529Z,5.00
2023-04-10T12:58:29.248Z,3.50
2023-04-10T13:01:02.824Z,3.80
2023-04-10T13:03:31.907Z,2.50
2023-04-10T13:05:59.709Z,2.50
2023-04-10T13:08:32.695Z,3.30
2023-04-10T13:11:04.643Z,3.10
2023-04-10T13:13:33.918Z,3.50
2023-04-10T13:16:01.452Z,3.50
2023-04-10T13:18:29.490Z,3.30
2023-04-10T13:20:56.680Z,3.30
2023-04-10T13:23:24.772Z,2.90
2023-04-10T13:25:52.372Z,2.70
2023-04-10T13:28:21.551Z,1.90
2023-04-10T13:30:48.719Z,1.90
2023-04-10T13:33:18.440Z,2.40
2023-04-10T13:35:45.752Z,2.30
2023-04-10T13:38:12.964Z,3.50
2023-04-10T13:43:21.018Z,14.90
2023-04-10T13:45:50.040Z,13.10
2023-04-10T13:48:22.293Z,15.60
2023-04-10T13:50:54.665Z,6.90
2023-04-10T13:53:24.617Z,2.30
2023-04-10T13:55:54.360Z,3.70
2023-04-10T13:58:28.709Z,5.90
2023-04-10T14:00:56.048Z,3.50
2023-04-10T14:03:25.844Z,4.30
2023-04-10T14:05:54.127Z,3.00
2023-04-10T14:08:27.131Z,3.90
2023-04-10T14:10:54.366Z,4.00
2023-04-10T14:13:21.790Z,8.10
2023-04-10T14:15:53.771Z,5.30
2023-04-10T14:18:41.229Z,4.50
2023-04-10T14:21:20.935Z,2.40
2023-04-10T14:23:48.290Z,2.30
2023-04-10T14:26:18.026Z,2.40
2023-04-10T14:28:46.088Z,3.90
2023-04-10T14:31:13.341Z,4.90
2023-04-10T14:33:40.962Z,3.80
2023-04-10T14:36:15.689Z,2.60
2023-04-10T14:38:42.770Z,2.10
2023-04-10T14:41:10.363Z,3.00
2023-04-10T14:43:39.674Z,4.10
2023-04-10T14:46:07.113Z,9.70
2023-04-10T14:48:38.067Z,4.70
2023-04-10T14:51:14.782Z,4.00
2023-04-10T14:53:50.099Z,3.30
2023-04-10T14:56:18.217Z,4.20
2023-04-10T14:58:48.259Z,2.70
2023-04-10T15:01:16.276Z,4.20
2023-04-10T15:03:47.315Z,6.30
2023-04-10T15:06:16.144Z,6.60
2023-04-10T15:08:43.660Z,5.20
2023-04-10T15:11:10.961Z,2.90
2023-04-10T15:13:40.190Z,5.00
2023-04-10T15:16:25.126Z,3.40
2023-04-10T15:18:55.407Z,3.70
2023-04-10T15:21:22.742Z,4.00
2023-04-10T15:23:49.793Z,3.50
2023-04-10T15:26:17.008Z,2.80
2023-04-10T15:28:48.416Z,3.00
2023-04-10T15:31:16.143Z,3.80
2023-04-10T15:33:56.143Z,4.80
2023-04-10T15:36:26.215Z,3.10
2023-04-10T15:39:02.896Z,3.70
2023-04-10T15:41:33.261Z,5.40
2023-04-10T15:44:00.291Z,5.40
2023-04-10T15:46:32.721Z,4.10
2023-04-10T15:49:10.407Z,6.40
2023-04-10T15:51:39.076Z,8.60
2023-04-10T15:54:10.999Z,15.10
2023-04-10T15:57:10.794Z,19.10
2023-04-10T15:59:39.332Z,15.10
2023-04-10T16:02:06.656Z,12.60
2023-04-10T16:04:50.018Z,6.90
2023-04-10T16:07:18.026Z,2.60
2023-04-10T16:09:47.634Z,3.10
2023-04-10T16:12:24.590Z,4.30
2023-04-10T16:14:52.526Z,7.20
2023-04-10T16:17:22.550Z,18.00
2023-04-10T16:19:55.140Z,14.20
2023-04-10T16:22:24.067Z,7.80
2023-04-10T16:24:57.224Z,7.10
2023-04-10T16:29:55.034Z,12.30
2023-04-10T16:32:31.755Z,8.60
2023-04-10T16:35:08.861Z,8.90
2023-04-10T16:37:38.837Z,8.60
2023-04-10T16:40:15.334Z,12.80
2023-04-10T16:42:45.772Z,15.70
2023-04-10T16:45:18.697Z,43.80
2023-04-10T16:47:46.295Z,18.70
2023-04-10T16:50:14.272Z,18.20
2023-04-10T16:52:45.666Z,16.90
2023-04-10T16:55:13.187Z,18.60
2023-04-10T16:57:40.396Z,13.90
2023-04-10T17:00:11.693Z,14.00
2023-04-10T17:02:40.251Z,14.60
2023-04-10T17:05:14.965Z,14.90
2023-04-10T17:07:45.221Z,15.40
2023-04-10T17:10:12.380Z,12.70
2023-04-10T17:12:43.596Z,13.90
2023-04-10T17:15:21.692Z,14.80
2023-04-10T17:18:01.554Z,14.00
2023-04-10T17:20:28.912Z,14.80
2023-04-10T17:22:56.236Z,15.20
2023-04-10T17:25:32.374Z,10.90
2023-04-10T17:27:59.957Z,9.50
2023-04-10T17:30:43.177Z,10.00
2023-04-10T17:33:10.713Z,8.60
2023-04-10T17:35:37.747Z,8.40
2023-04-10T17:38:08.733Z,9.20
2023-04-10T17:40:37.087Z,10.10
2023-04-10T17:43:08.818Z,19.40
2023-04-10T17:45:37.558Z,38.00
2023-04-10T17:48:04.938Z,20.80
2023-04-10T17:50:44.567Z,22.70
2023-04-10T17:53:11.706Z,19.60
2023-04-10T17:55:41.608Z,15.10
2023-04-10T17:58:15.388Z,16.50
2023-04-10T18:00:51.449Z,17.90
2023-04-10T18:03:19.760Z,16.90
2023-04-10T18:05:47.532Z,15.90
2023-04-10T18:08:14.757Z,14.00
2023-04-10T18:10:42.626Z,14.00
2023-04-10T18:13:09.775Z,16.20
2023-04-10T18:15:38.312Z,23.10
2023-04-10T18:18:05.893Z,28.00
2023-04-10T18:20:35.758Z,22.80
2023-04-10T18:23:06.555Z,31.00
2023-04-10T18:25:41.214Z,32.70
2023-04-10T18:28:23.300Z,45.70
2023-04-10T18:30:54.963Z,24.10
2023-04-10T18:33:28.550Z,25.40
2023-04-10T18:36:00.350Z,24.90
2023-04-10T18:38:27.392Z,21.30
2023-04-10T18:40:58.023Z,22.80
2023-04-10T18:45:53.920Z,24.20
2023-04-10T18:48:23.021Z,26.00
2023-04-10T18:50:53.551Z,25.00
2023-04-10T18:53:25.671Z,26.90
2023-04-10T18:56:01.221Z,21.40
2023-04-10T18:58:37.851Z,21.10
2023-04-10T19:01:20.348Z,21.00
2023-04-10T19:04:06.964Z,24.20
2023-04-10T19:06:35.144Z,27.60
2023-04-10T19:09:04.871Z,26.00
2023-04-10T19:11:32.671Z,24.40
2023-04-10T19:14:08.116Z,16.90
2023-04-10T19:16:42.207Z,16.70
2023-04-10T19:19:16.974Z,16.10
2023-04-10T19:21:51.779Z,16.90
2023-04-10T19:24:21.649Z,38.20
2023-04-10T19:26:52.924Z,35.80
2023-04-10T19:29:33.181Z,31.70
2023-04-10T19:32:03.332Z,32.40
2023-04-10T19:35:05.345Z,25.50
2023-04-10T19:37:35.740Z,28.10
2023-04-10T19:40:18.974Z,37.90
2023-04-10T19:42:47.180Z,35.10
2023-04-10T19:45:21.311Z,32.80
2023-04-10T19:47:53.538Z,30.10
2023-04-10T19:50:20.984Z,51.90
2023-04-10T19:53:15.695Z,77.60
2023-04-10T19:56:15.627Z,62.10
2023-04-10T19:58:48.211Z,40.20
2023-04-10T20:01:24.168Z,48.30
2023-04-10T20:04:21.591Z,30.00
2023-04-10T20:07:09.606Z,39.20
2023-04-10T20:10:02.475Z,36.00
2023-04-10T20:12:33.428Z,45.50
2023-04-10T20:17:04.709Z,40.70
2023-04-10T20:19:45.456Z,41.70
2023-04-10T20:22:38.833Z,72.90
2023-04-10T20:25:07.831Z,59.70
2023-04-10T20:28:18.141Z,51.00
2023-04-10T20:30:53.363Z,66.40
2023-04-10T20:33:53.804Z,47.80
2023-04-10T20:36:41.302Z,46.40
2023-04-10T20:39:37.365Z,41.50
2023-04-10T20:42:49.111Z,32.50
2023-04-10T20:46:27.317Z,47.10
2023-04-10T20:49:44.654Z,44.40
2023-04-10T20:53:01.030Z,42.90
2023-04-10T20:55:37.168Z,54.20
2023-04-10T20:58:45.223Z,43.30
2023-04-10T21:02:11.024Z,28.90
2023-04-10T21:05:30.153Z,32.90
2023-04-10T21:09:30.014Z,36.50
2023-04-10T21:12:33.710Z,35.90
2023-04-10T21:16:12.028Z,37.30
2023-04-10T21:19:50.956Z,39.80
2023-04-10T21:23:17.237Z,31.90
2023-04-10T21:26:14.844Z,36.70
2023-04-10T21:29:49.064Z,42.10
2023-04-10T21:33:42.561Z,41.90
2023-04-10T21:37:50.642Z,51.50
2023-04-10T21:41:41.400Z,47.10
2023-04-10T21:45:05.206Z,35.40
2023-04-10T21:48:28.285Z,34.70
2023-04-10T21:52:08.451Z,38.50
2023-04-10T21:55:39.621Z,38.70
2023-04-10T21:59:31.738Z,41.10
2023-04-10T22:03:33.567Z,38.60
2023-04-10T22:07:18.778Z,33.40
2023-04-10T22:10:38.100Z,33.50
2023-04-10T22:13:53.701Z,35.10
2023-04-10T22:17:18.007Z,34.60
2023-04-10T22:20:29.094Z,36.30
2023-04-10T22:24:09.499Z,34.60
2023-04-10T22:27:37.275Z,27.50
2023-04-10T22:31:25.950Z,27.20
2023-04-10T22:35:27.309Z,25.80
2023-04-10T22:39:35.416Z,26.40
2023-04-10T22:43:09.174Z,20.50
2023-04-10T22:46:39.642Z,13.50
2023-04-10T22:53:29.477Z,21.20
2023-04-10T22:57:03.224Z,35.10
2023-04-10T23:01:12.472Z,34.70
2023-04-10T23:05:13.265Z,27.40
2023-04-10T23:09:00.137Z,29.40
2023-04-10T23:12:54.625Z,39.10
2023-04-10T23:20:50.683Z,38.10
2023-04-10T23:24:42.403Z,34.40
2023-04-10T23:28:50.476Z,35.10
2023-04-10T23:32:58.688Z,28.80
2023-04-10T23:37:06.984Z,32.30
2023-04-10T23:41:07.961Z,32.20
2023-04-10T23:45:05.161Z,27.20
2023-04-10T23:49:13.275Z,27.10
2023-04-10T23:53:12.724Z,26.90
